ADDS METAR Data INFO
IDs: Format: Raw Decoded Include TAF

Data at: 1411 UTC 12 Dec 2017

KADU 121355Z AUTO 00000KT 10SM CLR M09/M12 A3028 RMK AO2
KADU 121335Z AUTO 32004KT 10SM CLR M09/M12 A3028 RMK AO2
KADU 121315Z AUTO 00000KT 10SM CLR M09/M12 A3029 RMK AO2
KADU 121255Z AUTO 30005KT 10SM CLR M09/M12 A3028 RMK AO2
KADU 121235Z AUTO 29007KT 10SM CLR M09/M12 A3029 RMK AO2
KADU 121215Z AUTO 29004KT 10SM CLR M10/M12 A3029 RMK AO2
KADU 121155Z AUTO 29003KT 10SM CLR M10/M12 A3029 RMK AO2
KADU 121135Z AUTO 27003KT 10SM CLR M10/M12 A3028 RMK AO2
KADU 121115Z AUTO 31005KT 10SM CLR M10/M12 A3029 RMK AO2
KADU 121055Z AUTO 31003KT 10SM CLR M09/M12 A3028 RMK AO2
KADU 121035Z AUTO 30006KT 10SM CLR M09/M12 A3029 RMK AO2
KADU 121015Z AUTO 29007KT 10SM CLR M09/M12 A3029 RMK AO2
KADU 120955Z AUTO 30004KT 10SM CLR M09/M12 A3029 RMK AO2
KADU 120935Z AUTO 30009KT 10SM CLR M09/M12 A3030 RMK AO2
KADU 120915Z AUTO 31006KT 10SM CLR M09/M12 A3030 RMK AO2
KADU 120855Z AUTO 32006KT 10SM CLR M09/M12 A3030 RMK AO2
KADU 120835Z AUTO 32009KT 10SM CLR M09/M12 A3030 RMK AO2
KADU 120815Z AUTO 31006KT 10SM CLR M09/M12 A3030 RMK AO2
KADU 120755Z AUTO 32007KT 10SM CLR M08/M11 A3029 RMK AO2
KADU 120735Z AUTO 32010KT 10SM CLR M08/M11 A3029 RMK AO2
KADU 120715Z AUTO 32012G15KT 10SM CLR M08/M11 A3029 RMK AO2
KADU 120655Z AUTO 33011KT 10SM CLR M08/M11 A3029 RMK AO2
KADU 120635Z AUTO 33009KT 10SM CLR M07/M11 A3030 RMK AO2
KADU 120615Z AUTO 33010G17KT 10SM CLR M07/M10 A3029 RMK AO2
KADU 120555Z AUTO 33010G15KT 10SM CLR M07/M10 A3029 RMK AO2
KADU 120535Z AUTO 33009KT 10SM CLR M07/M10 A3029 RMK AO2
KADU 120515Z AUTO 34010G18KT 10SM CLR M06/M10 A3028 RMK AO2
KADU 120455Z AUTO 34017G21KT 10SM CLR M06/M09 A3027 RMK AO2
KADU 120435Z AUTO 34009KT 10SM CLR M06/M08 A3026 RMK AO2
KADU 120415Z AUTO 34014G21KT 10SM CLR M04/M08 A3026 RMK AO2
KADU 120355Z AUTO 34014G20KT 10SM CLR M04/M07 A3025 RMK AO2
KADU 120335Z AUTO 34013G18KT 10SM CLR M04/M07 A3024 RMK AO2
KADU 120315Z AUTO 34014G19KT 10SM CLR M03/M07 A3023 RMK AO2
KADU 120255Z AUTO 34010G14KT 10SM CLR M03/M06 A3022 RMK AO2
KADU 120235Z AUTO 34014G22KT 10SM SCT024 M02/M06 A3022 RMK AO2
KADU 120215Z AUTO 34013G23KT 10SM BKN024 M02/M06 A3022 RMK AO2
KADU 120155Z AUTO 33012G23KT 10SM OVC024 M01/M06 A3020 RMK AO2
KADU 120135Z AUTO 33020G24KT 10SM BKN026 M01/M05 A3019 RMK AO2
KADU 120115Z AUTO 34016G22KT 10SM OVC026 M01/M05 A3018 RMK AO2
KADU 120055Z AUTO 33012G18KT 10SM OVC026 M01/M05 A3016 RMK AO2
KADU 120035Z AUTO 33017G23KT 10SM OVC026 M01/M05 A3015 RMK AO2
KADU 120015Z AUTO 34014G22KT 10SM OVC026 00/M04 A3014 RMK AO2
KADU 112355Z AUTO 34015G21KT 10SM OVC028 01/M04 A3013 RMK AO2
KADU 112335Z AUTO 34014G28KT 10SM SCT022 OVC028 01/M04 A3012 RMK AO2
KADU 112315Z AUTO 34019G30KT 10SM OVC022 01/M03 A3011 RMK AO2
KADU 112255Z AUTO 34016G22KT 10SM OVC022 01/M02 A3010 RMK AO2
KADU 112235Z AUTO 34016G22KT 10SM OVC022 02/M02 A3008 RMK AO2
KADU 112215Z AUTO 35017G25KT 10SM OVC022 02/M02 A3007 RMK AO2
KADU 112155Z AUTO 35018G30KT 10SM OVC022 02/M02 A3005 RMK AO2
KADU 112135Z AUTO 34019G27KT 10SM OVC024 04/M01 A3002 RMK AO2
KADU 112115Z AUTO 34019G25KT 10SM OVC024 04/M01 A3000 RMK AO2
KADU 112055Z AUTO 33018G24KT 10SM OVC024 04/00 A2998 RMK AO2
KADU 112035Z AUTO 33020G29KT 10SM OVC024 05/01 A2997 RMK AO2
KADU 112015Z AUTO 33020G26KT 10SM OVC024 05/01 A2996 RMK AO2
KADU 111955Z AUTO 33018G29KT 10SM OVC026 06/01 A2994 RMK AO2
KADU 111935Z AUTO 33022G28KT 10SM BKN026 06/01 A2993 RMK AO2
KADU 111915Z AUTO 33020G34KT 10SM OVC026 06/01 A2992 RMK AO2
KADU 111855Z AUTO 33016G32KT 10SM OVC026 06/01 A2991 RMK AO2
KADU 111835Z AUTO 32018G29KT 10SM OVC026 06/01 A2991 RMK AO2
KADU 111815Z AUTO 32018G27KT 10SM OVC026 06/01 A2990 RMK AO2
KADU 111755Z AUTO 32019G28KT 10SM OVC026 06/01 A2990 RMK AO2
KADU 111735Z AUTO 31014G25KT 10SM OVC028 06/01 A2990 RMK AO2
KADU 111715Z AUTO 31020G33KT 7SM OVC030 06/01 A2989 RMK AO2
KADU 111655Z AUTO 31018G31KT 10SM OVC032 07/00 A2989 RMK AO2
KADU 111635Z AUTO 31012G23KT 10SM BKN036 BKN042 07/M01 A2989 RMK AO2
KADU 111615Z AUTO 31014G24KT 10SM BKN038 BKN047 07/M01 A2988 RMK AO2
KADU 111555Z AUTO 31016G27KT 10SM BKN047 07/M02 A2987 RMK AO2
KADU 111535Z AUTO 31019G27KT 10SM SCT043 07/M02 A2986 RMK AO2
KADU 111515Z AUTO 31015G26KT 10SM CLR 06/M02 A2985 RMK AO2
KADU 111455Z AUTO 31015G30KT 7SM CLR 06/M03 A2985 RMK AO2
KADU 111435Z AUTO 31014G23KT 10SM CLR 06/M03 A2984 RMK AO2
KADU 111415Z AUTO 30013G20KT 10SM CLR 04/M04 A2984 RMK AO2
KADU 111355Z AUTO 29013G21KT 10SM CLR 04/M06 A2984 RMK AO2
KADU 111335Z AUTO 29012G18KT 10SM CLR 03/M07 A2984 RMK AO2
KADU 111315Z AUTO 28008KT 10SM CLR 03/M07 A2983 RMK AO2
KADU 111255Z AUTO 28007KT 10SM CLR 03/M06 A2983 RMK AO2
KADU 111235Z AUTO 27007KT 10SM CLR 03/M06 A2984 RMK AO2
KADU 111215Z AUTO 26007KT 10SM CLR 01/M06 A2984 RMK AO2
KADU 111155Z AUTO 25009KT 10SM CLR 01/M05 A2984 RMK AO2
KADU 111135Z AUTO 25010KT 10SM CLR 01/M05 A2984 RMK AO2
KADU 111115Z AUTO 27003KT 10SM CLR 01/M05 A2987 RMK AO2
KADU 111055Z AUTO 00000KT 10SM CLR 01/M04 A2988 RMK AO2
KADU 111035Z AUTO 00000KT 10SM CLR 00/M04 A2988 RMK AO2
KADU 111015Z AUTO 00000KT 10SM CLR 01/M04 A2989 RMK AO2
KADU 110955Z AUTO 00000KT 10SM CLR 02/M04 A2990 RMK AO2
KADU 110935Z AUTO 00000KT 10SM CLR 03/M03 A2991 RMK AO2
KADU 110855Z AUTO 24004KT 10SM CLR 03/M03 A2994 RMK AO2
KADU 110835Z AUTO 00000KT 10SM CLR 02/M03 A2993 RMK AO2
KADU 110815Z AUTO 00000KT 10SM CLR 01/M03 A2994 RMK AO2
KADU 110755Z AUTO 00000KT 10SM CLR M01/M04 A2995 RMK AO2
KADU 110735Z AUTO 16004KT 10SM CLR M01/M04 A2997 RMK AO2
KADU 110715Z AUTO 00000KT 10SM CLR M01/M04 A2999 RMK AO2
KADU 110655Z AUTO 00000KT 10SM CLR M01/M04 A3000 RMK AO2
KADU 110635Z AUTO 00000KT 10SM CLR M01/M04 A3000 RMK AO2
KADU 110615Z AUTO 15004KT 10SM CLR M01/M04 A3000 RMK AO2
KADU 110555Z AUTO 00000KT 10SM CLR M03/M06 A3001 RMK AO2
KADU 110535Z AUTO 00000KT 10SM CLR M03/M06 A3002 RMK AO2
KADU 110515Z AUTO 00000KT 10SM CLR M01/M04 A3002 RMK AO2
KADU 110455Z AUTO 00000KT 10SM CLR M01/M04 A3002 RMK AO2
KADU 110435Z AUTO 00000KT 10SM CLR M01/M04 A3003 RMK AO2
KADU 110415Z AUTO 00000KT 10SM CLR M01/M04 A3004 RMK AO2
KADU 110355Z AUTO 00000KT 10SM CLR M02/M05 A3005 RMK AO2
KADU 110335Z AUTO 00000KT 10SM CLR M03/M06 A3005 RMK AO2
KADU 110315Z AUTO 00000KT 10SM CLR M04/M07 A3005 RMK AO2
KADU 110255Z AUTO 00000KT 10SM CLR M03/M07 A3006 RMK AO2
KADU 110235Z AUTO 00000KT 10SM CLR M02/M05 A3007 RMK AO2
KADU 110215Z AUTO 00000KT 10SM CLR M02/M06 A3008 RMK AO2